Tiempo atmosférico en la estación meteorológica de La Molina, Girona (1704 m.)



Fecha
DESCASC
Temp. máxima en grados centígrados (hora)
DESCASC
Temp. mínima en grados centígrados (hora)
DESCASC
Temp. media en grados centígrados
DESCASC
Racha de viento máxima en m/sg (hora)
DESCASC
Velocidad máxima media en intervalos de 10 minutos(hora)
DESCASC
Precipitaciones diarias en mm
DESCASC
Precipitaciones de 00:00 a 06:00 en mm
DESCASC
Precipitaciones de 06:00 a 12:00 en mm
DESCASC
Precipitaciones de 12:00 a 18:00 en mm
DESCASC
Precipitaciones de 18:00 a 24:00 en mm
DESCASC
08-12-2019 6 (14:30) 0.3 (03:10) 3.2 5.83 (23:50) 3.61 (23:50) 0 0 0 0 0
07-12-2019 5 (14:50) -0.5 (00:30) 2.3 3.61 (18:10) 2.78 (18:10) 0 0 0 0 0
06-12-2019 3.5 (15:10) -0.8 (07:00) 1.3 3.61 (00:10) 2.5 (16:40) 0 0 0 0 0
05-12-2019 2.8 (15:50) 0.1 (00:00) 1.4 6.11 (10:00) 2.78 (10:20) 7.6 5.6 2 0 0
04-12-2019 4.1 (11:30) 0.3 (00:00) 2.2 9.44 (11:30) 5.28 (02:20) 17.6 0 0 8.8 8.8
03-12-2019 5 (13:20) -3.2 (-00:0) 0.9 8.33 (16:40) 5.83 (16:40) 0 0 0 0 0
02-12-2019 5 (14:50) -2.7 (-00:0) 1.1 4.72 (02:10) 2.5 (15:50) 0 0 0 0 0
01-12-2019 5.6 (00:10) -0.2 (00:00) 2.7 9.44 (01:30) 4.72 (04:50) 7.2 6.4 0.6 0.2 0
30-11-2019 9.7 (14:10) 0.1 (00:00) 4.9 9.17 (13:00) 4.17 (13:10) 1.8 0 0 0 1.8
29-11-2019 9.5 (14:40) 0.5 (00:00) 5 10.56 (00:10) 5 (00:50) 0 0 0 0 0
28-11-2019 7.4 (14:30) 0.4 (00:00) 3.9 11.39 (02:00) 5.83 (01:00) 0 0 0 0 0
27-11-2019 7.5 (15:20) 2.3 (00:00) 4.9 11.94 (07:10) 5.56 (07:10) 1.2 1.2 0 0 0
26-11-2019 10.7 (13:50) -0.1 (00:00) 5.3 11.94 (21:20) 5 (20:30) 0.4 0 0 0 0.4
25-11-2019 9.2 (15:40) -1.5 (-00:0) 3.8 5 (12:50) 2.78 (08:40) 0 0 0 0 0
24-11-2019 5.2 (15:00) -1.7 (-00:0) 1.7 14.72 (00:40) 5.28 (00:30) 0 0 0 0 0
23-11-2019 4.2 (00:10) 0.3 (00:00) 2.2 13.89 (01:20) 5.56 (22:10) 17.8 17.4 0 0.4 0
22-11-2019 4.3 (23:59) -3.1 (-00:0) 0.6 16.67 (15:00) 5.56 (23:20) 52.4 0 0 7.6 44.8
21-11-2019 4.2 (13:40) -5.9 (-00:0) -0.9 6.39 (18:30) 2.78 (17:30) 0 0 0 0 0
20-11-2019 3.8 (15:30) -5.7 (-00:0) -0.9 3.89 (15:00) 2.5 (18:40) 0 0 0 0 0
19-11-2019 3.4 (14:20) -7.6 (-00:0) -2.1 5.28 (03:20) 3.06 (20:10) 0 0 0 0 0
18-11-2019 2.4 (14:20) -7.6 (-00:0) -2.6 6.94 (11:50) 3.06 (13:00) 0 0 0 0 0
17-11-2019 2.2 (14:30) -5.5 (-00:0) -1.6 5.83 (14:00) 2.5 (05:10) 0 0 0 0 0
16-11-2019 0.4 (14:30) -8.4 (-00:0) -4 4.17 (16:50) 3.06 (05:10) 0 0 0 0 0
15-11-2019 0.3 (13:10) -7.6 (-00:0) -3.6 6.11 (11:20) 3.89 (10:30) 1.2 0.4 0.2 0.2 0.4
14-11-2019 3.2 (03:00) -5.9 (-00:0) -1.4 14.17 (04:50) 7.78 (05:20) 14.4 0.2 7.6 5.6 1
13-11-2019 6.4 (15:40) -1.9 (-00:0) 2.3 5.83 (12:40) 3.33 (13:20) 0 0 0 0 0
12-11-2019 5.3 (15:10) -2.2 (-00:0) 1.6 11.39 (13:50) 5 (12:40) 0 0 0 0 0

Gráficas

Temp. máximas Temp. mínimas Temp. medias Precipitaciones Rachas de viento máximas Velocidades máximas media en intervalos de 10 minutos

Datos horarios

Fecha y hora oficial Temperatura (ºC) Velocidad del viento (km/h) Dirección del viento Racha (km/h) Dirección de racha Precipitación (mm) Presión (hPa) Tendencia (hPa) Humedad (%)
2019-12-11 23:00:00 -0.3 14 Oeste 38 Oeste 0 825.5 -1 60
2019-12-11 22:00:00 0 15 Oeste 32 Oeste 0 825.6 -0.7 52
2019-12-11 21:00:00 -3.4 6 Sudoeste 12 Sudoeste 0 826.4 -0.2 80
2019-12-11 20:00:00 -2.5 6 Sudoeste 13 Oeste 0 826.5 0.4 71
2019-12-11 19:00:00 -1.9 4 Sudoeste 24 Oeste 0 826.3 0.5 63
2019-12-11 18:00:00 -0.2 10 Noroeste 29 Noroeste 0 826.6 0.6 67
2019-12-11 17:00:00 1 9 Oeste 26 Oeste 0 826.1 0.4 74
2019-12-11 16:00:00 0.9 6 Sudoeste 19 Sur 0 825.8 -0.7 85
2019-12-11 15:00:00 2.6 9 Oeste 23 Noroeste 0 826 -1.4 59
2019-12-11 14:00:00 4.2 3 Este 10 Noroeste 0 825.7 -2.2 35
2019-12-11 13:00:00 4.3 4 Sur 8 Noroeste 0 826.5 -2 35
2019-12-11 12:00:00 5.7 5 Nordeste 7 Nordeste 0 827.4 -1.6 34
2019-12-11 11:00:00 6.2 2 Sur 9 Sudeste 0 827.9 -1.4 34
2019-12-11 10:00:00 3.5 3 Sudeste 9 Sudeste 0 828.5 -1 36
2019-12-11 09:00:00 2.5 5 Sudeste 11 Sudeste 0 829 -0.8 38
2019-12-11 08:00:00 1.7 5 Sudeste 10 Este 0 829.3 -1 36
2019-12-11 07:00:00 2.5 3 Este 9 Sudeste 0 829.5 -1.6 39
2019-12-11 06:00:00 2.8 4 Sudeste 11 Sudeste 0 829.8 -1.7 40
2019-12-11 05:00:00 2.5 8 Sudeste 12 Sudeste 0 830.3 -1.7 35
2019-12-11 04:00:00 1.4 6 Sudeste 13 Sudeste 0 831.1 -1.5 36
2019-12-11 03:00:00 2.2 10 Sudeste 14 Sudeste 0 831.5 -1.7 30
2019-12-11 02:00:00 1.5 8 Sudeste 12 Este 0 832 -1.1 34
2019-12-11 01:00:00 1.9 6 Sudeste 12 Sudeste 0 832.6 -0.9 35
2019-12-11 00:00:00 1.8 6 Sudeste 12 Sudeste 0 833.2 -0.2 39
2019-12-10 23:00:00 2 6 Sudeste 12 Sudeste 0 833.1 -0.7 32
2019-12-10 22:00:00 1.5 7 Sudeste 13 Sudeste 0 833.5 -0.5 38
2019-12-10 21:00:00 1.3 8 Sudeste 10 Sudeste 0 833.4 -0.4 43
2019-12-10 20:00:00 2.8 3 Sur 12 Sur 0 833.8 0.3 37
2019-12-10 19:00:00 2.7 5 Sudeste 15 Sur 0 834 0.2 39
2019-12-10 18:00:00 1.5 8 Sur 12 Sudeste 0 833.8 0.2 44
2019-12-10 17:00:00 2.2 5 Sudeste 14 Sur 0 833.5 -0.3 41
2019-12-10 16:00:00 6.1 10 Sur 19 Noroeste 0 833.8 -0.7 31
2019-12-10 15:00:00 8.3 13 Noroeste 30 Noroeste 0 833.6 -1.5 23
2019-12-10 14:00:00 7.9 17 Noroeste 33 Noroeste 0 833.8 -1.8 19
2019-12-10 13:00:00 6.3 15 Noroeste 29 Noroeste 0 834.5 -0.8 19
2019-12-10 12:00:00 4.3 9 Norte 23 Norte 0 835.1 0 21
2019-12-10 11:00:00 4.2 10 Norte 27 Norte 0 835.6 1.1 18
2019-12-10 10:00:00 1.3 8 Nordeste 25 Norte 0 835.3 0.9 24
2019-12-10 09:00:00 1.8 11 Noroeste 47 Noroeste 0 835.1 1.4 20
2019-12-10 08:00:00 0.2 19 Noroeste 55 Noroeste 0 834.5 1.2 31
2019-12-10 07:00:00 -0.4 19 Norte 44 Norte 0 834.4 1.3 46
2019-12-10 06:00:00 -0.8 10 Norte 37 Nordeste 0 833.7 0.3 57
2019-12-10 05:00:00 -1.1 12 Norte 32 Norte 0 833.3 0.4 63
2019-12-10 04:00:00 -1.9 8 Oeste 30 Norte 0 833.1 0.4 77
2019-12-10 03:00:00 -1.9 12 Oeste 26 Noroeste 0 833.4 0.8 78
2019-12-10 02:00:00 -1.9 10 Oeste 38 Noroeste 0 832.9 0.4 85
2019-12-10 01:00:00 -0.5 25 Oeste 57 Noroeste 0 832.7 1.1 66
2019-12-10 00:00:00 -1.3 17 Oeste 53 Sudoeste 0 832.6 0.9 81
2019-12-09 23:00:00 -1.3 23 Oeste 50 Oeste 0.2 832.5 1 86
2019-12-09 22:00:00 -1.3 24 Oeste 72 Sudoeste 0 831.6 1 83
2019-12-09 21:00:00 -1.8 15 Oeste 38 Noroeste 0 831.7 1 88
2019-12-09 20:00:00 -1.1 22 Oeste 44 Oeste 0 831.5 1.3 92
2019-12-09 19:00:00 -0.7 14 Oeste 29 Oeste 0.2 830.6 0 86
2019-12-09 18:00:00 -0.8 10 Oeste 27 Noroeste 0 830.7 0.6 87
2019-12-09 17:00:00 0.1 10 Noroeste 33 Noroeste 0 830.2 0.3 81
2019-12-09 16:00:00 1.4 13 Oeste 44 Noroeste 0 830.6 0.3 70
2019-12-09 15:00:00 2.8 13 Noroeste 40 Noroeste 0 830.1 -0.3 60
2019-12-09 14:00:00 2.5 9 Oeste 30 Noroeste 0 829.9 -1 68
2019-12-09 13:00:00 2.6 17 Noroeste 40 Noroeste 0 830.3 0.5 60
2019-12-09 12:00:00 3.2 7 Noroeste 22 Oeste 0 830.4 0.5 62
2019-12-09 11:00:00 1.3 9 Oeste 35 Oeste 0 830.9 0.7 79
2019-12-09 10:00:00 2.2 9 Oeste 30 Oeste 0 829.8 -0.6 51
2019-12-09 09:00:00 0.8 5 Noroeste 25 Sudoeste 0 829.9 0.4 54
2019-12-09 08:00:00 0.7 3 Oeste 23 Sudoeste 0 830.2 -0.3 50
2019-12-09 07:00:00 0.5 6 Sur 46 Sudoeste 0 830.4 -0.5 61
2019-12-09 06:00:00 5.2 18 Sudoeste 42 Sudoeste 0 829.5 -1.8 22
2019-12-09 05:00:00 5.6 21 Oeste 50 Oeste 0 830.5 -1 19
2019-12-09 04:00:00 5 18 Sudoeste 33 Sudoeste 0 830.9 -0.6 17
2019-12-09 03:00:00 1.1 6 Sudeste 11 Sur 0 831.3 -0.5 53
2019-12-09 02:00:00 1.5 8 Sudeste 13 Sudeste 0 831.5 -0.3 58
2019-12-09 01:00:00 2.3 9 Sudeste 17 Sudoeste 0 831.5 -0.4 61
2019-12-09 00:00:00 4.4 9 Sudoeste 21 Sudoeste 0 831.8 -0.1 56
2019-12-08 23:00:00 4.5 7 Sudoeste 17 Sudoeste 0 831.8 -0.2 72
2019-12-08 22:00:00 4.1 8 Sudoeste 14 Sudoeste 0 831.9 0.7 80
2019-12-08 21:00:00 3.4 4 Sur 14 Sur 0 831.9 0.7 83
2019-12-08 20:00:00 3.5 7 Sudoeste 13 Sudoeste 0 832 1.1 68
2019-12-08 19:00:00 3.4 8 Sur 15 Sur 0 831.2 0.5 66
2019-12-08 18:00:00 2.8 4 Sudeste 9 Sudeste 0 831.2 0.5 67
2019-12-08 17:00:00 2.8 6 Sudeste 11 Este 0 830.9 -0.2 71
2019-12-08 16:00:00 4.6 6 Sudeste 12 Sudeste 0 830.7 -0.9 68
2019-12-08 15:00:00 5.6 7 Sudeste 11 Sudeste 0 830.7 -1.7 59
2019-12-08 14:00:00 4.9 7 Sudeste 10 Sudeste 0 831.1 -1.5 65
2019-12-08 13:00:00 4.2 6 Sudeste 9 Sudeste 0 831.6 -1 63
2019-12-08 12:00:00 3.5 5 Sudeste 9 Sudeste 0 832.4 -0.2 62
2019-12-08 11:00:00 4.6 6 Sudeste 15 Sudeste 0 832.6 0.2 57
2019-12-08 10:00:00 1.8 6 Sudeste 13 Sudeste 0 832.6 0.2 67
2019-12-08 09:00:00 1.3 5 Sudeste 12 Sudeste 0 832.6 0.1 70
2019-12-08 08:00:00 1.3 8 Sudeste 12 Sudeste 0 832.4 -0.4 75
2019-12-08 07:00:00 1.4 8 Sudeste 14 Sudeste 0 832.4 -0.6 72
2019-12-08 06:00:00 0.7 8 Sudeste 16 Sudeste 0 832.5 -1.1 78
2019-12-08 05:00:00 0.9 4 Este 12 Sudeste 0 832.8 -0.8 78
2019-12-08 04:00:00 0.8 8 Sudeste 12 Este 0 833 -0.7 79
2019-12-08 03:00:00 0.4 6 Sudeste 10 Sudeste 0 833.6 -0.7 81
2019-12-08 02:00:00 1.3 8 Sudeste 12 Sudeste 0 833.6 -0.5 75
2019-12-08 01:00:00 1.3 5 Sudeste 13 Sudeste 0 833.7 -0.4 77
2019-12-08 00:00:00 1.2 7 Sudeste 11 Sudeste 0 834.3 0.3 80
2019-12-07 23:00:00 1.9 4 Sudeste 11 Sudeste 0 834.1 0.1 75
2019-12-07 22:00:00 1.8 9 Sudeste 12 Sudeste 0 834.1 0.6 76
2019-12-07 21:00:00 1.7 9 Sudeste 13 Sudeste 0 834 0.7 77
2019-12-07 20:00:00 1.9 9 Sudeste 12 Sudeste 0 834 0.9 78
2019-12-07 19:00:00 1.6 9 Sudeste 13 Sudeste 0 833.5 0.6 81
2019-12-07 18:00:00 2 9 Sudeste 12 Sudeste 0 833.3 0.7 81
2019-12-07 17:00:00 2.6 7 Sudeste 12 Sudeste 0 833.1 0 81
2019-12-07 16:00:00 4.1 6 Sudeste 12 Sudeste 0 832.9 -0.6 74
2019-12-07 15:00:00 4.8 6 Sudeste 12 Sudeste 0 832.6 -1.3 69
2019-12-07 14:00:00 4.2 7 Sudeste 11 Sudeste 0 833.1 -1.1 72
2019-12-07 13:00:00 3.7 6 Sudeste 9 Sudeste 0 833.5 -0.3 70
2019-12-07 12:00:00 3.1 6 Sudeste 11 Sudeste 0 833.9 0.3 71
2019-12-07 11:00:00 2.7 7 Sudeste 11 Sudeste 0 834.2 1 70
2019-12-07 10:00:00 0.7 5 Sudeste 11 Sudeste 0 833.8 1 78
2019-12-07 09:00:00 0.6 8 Sudeste 12 Este 0 833.6 1.1 74
2019-12-07 08:00:00 0.3 8 Sudeste 12 Sudeste 0 833.2 0.4 76
2019-12-07 07:00:00 0 7 Sudeste 11 Sudeste 0 832.8 -0.3 80
2019-12-07 06:00:00 0 7 Sudeste 11 Sudeste 0 832.5 -1 83
2019-12-07 05:00:00 -0.4 5 Este 12 Sudeste 0 832.8 -0.4 88
2019-12-07 04:00:00 -0.1 5 Sudeste 12 Sudeste 0 833.1 -0.3 89
2019-12-07 03:00:00 -0.4 6 Sudeste 10 Sudeste 0 833.5 -0.1 92
2019-12-07 02:00:00 -0.1 5 Sudeste 11 Sudeste 0 833.2 0 92
2019-12-07 01:00:00 0 6 Sudeste 10 Sudeste 0 833.4 0.5 96
2019-12-07 00:00:00 0 8 Sudeste 12 Sudeste 0 833.6 0.4 94
2019-12-06 23:00:00 -0.2 7 Sudeste 10 Sudeste 0 833.2 0.1 93
2019-12-06 22:00:00 0 8 Sudeste 11 Sudeste 0 832.9 0.1 94
2019-12-06 21:00:00 0 8 Sudeste 12 Sudeste 0 833.2 0.7 95
2019-12-06 20:00:00 0.3 8 Sudeste 12 Sudeste 0 833.1 0.6 96
2019-12-06 19:00:00 0.6 8 Sudeste 11 Sudeste 0 832.8 0.4 95
2019-12-06 18:00:00 0.7 9 Sudeste 11 Sudeste 0 832.5 0.2 93
2019-12-06 17:00:00 1.2 8 Sudeste 12 Sudeste 0 832.5 -0.2 92
2019-12-06 16:00:00 1.4 7 Sudeste 10 Sudeste 0 832.4 -0.8 91
2019-12-06 15:00:00 3.4 4 Sudeste 10 Sudeste 0 832.3 -1.6 83
2019-12-06 14:00:00 2.5 6 Sudeste 8 Sudeste 0 832.7 -1.6 85
2019-12-06 13:00:00 2 4 Sudeste 8 Sudeste 0 833.2 -0.7 86
2019-12-06 12:00:00 2.3 4 Sudeste 8 Sudeste 0 833.9 0.5 83
2019-12-06 11:00:00 1.7 5 Sudeste 10 Sudeste 0 834.3 1.2 85
2019-12-06 10:00:00 -0.1 5 Sudeste 10 Sudeste 0 833.9 1 95
2019-12-06 09:00:00 -0.6 6 Sudeste 10 Sudeste 0 833.4 0.5 98
2019-12-06 08:00:00 -0.7 6 Sudeste 10 Este 0 833.1 0.1 95
2019-12-06 07:00:00 -0.7 7 Sudeste 10 Sudeste 0 832.9 -0.2 96
2019-12-06 06:00:00 -0.3 8 Sudeste 11 Sudeste 0 832.9 -0.2 97
2019-12-06 05:00:00 0 5 Sudeste 13 Sudeste 0 833 0 96
2019-12-06 04:00:00 -0.2 8 Sudeste 10 Sudeste 0 833.1 0 97
2019-12-06 03:00:00 0.5 6 Sudeste 11 Sudeste 0 833.1 -0.5 94
2019-12-06 02:00:00 0.9 8 Sur 12 Sur 0 833 -0.3 95
2019-12-06 01:00:00 0.3 6 Sur 13 Sur 0 833.1 -0.1 98
2019-12-06 00:00:00 0.2 5 Sudeste 10 Este 0 833.6 0.4 97
2019-12-05 23:00:00 0.3 5 Sudeste 9 Sudeste 0 833.3 0.3 98
2019-12-05 22:00:00 0.5 5 Sudeste 8 Sudeste 0 833.2 0.6 97
2019-12-05 21:00:00 1 5 Sudeste 10 Sudeste 0 833.2 1.2 96
2019-12-05 20:00:00 1.3 6 Sudeste 9 Sudeste 0 833 1.3 98
2019-12-05 19:00:00 1.1 4 Sudeste 10 Sur 0 832.6 1.3 98
2019-12-05 18:00:00 1.1 7 Sudeste 14 Sur 0 832 1 96
2019-12-05 17:00:00 1.9 5 Sur 12 Sur 0 831.7 1.1 93
2019-12-05 16:00:00 2.8 3 Sur 10 Este 0 831.3 0.5 90
2019-12-05 15:00:00 2 5 Sur 10 Sudeste 0 831 0 95
2019-12-05 14:00:00 1.4 4 Noroeste 14 Sudoeste 0 830.6 -0.4 93
2019-12-05 13:00:00 0.6 9 Sudoeste 16 Sudoeste 0 830.8 0.7 95
2019-12-05 12:00:00 0.9 5 Sudoeste 19 Noroeste 0 831 1.6 91
2019-12-05 11:00:00 0.6 5 Sudoeste 22 Norte 0 831 2.4 96
2019-12-05 10:00:00 0.6 8 Noroeste 22 Norte 0.2 830.1 2.1 96
2019-12-05 09:00:00 0.9 6 Oeste 13 Sudoeste 0.4 829.4 2 98
2019-12-05 08:00:00 0.7 5 Nordeste 12 Norte 1 828.6 1.4 98
2019-12-05 07:00:00 0.7 6 Sur 9 Sur 0.4 828 1 99
2019-12-05 06:00:00 0.8 4 Este 9 Sudeste 1 827.4 0.9 99
2019-12-05 05:00:00 1 4 Sur 10 Sudoeste 1 827.2 1.1 97
2019-12-05 04:00:00 1.1 5 Sur 12 Sudoeste 0.6 827 0.8 98
2019-12-05 03:00:00 1.1 5 Noroeste 10 Noroeste 0.6 826.5 0.4 98
2019-12-05 02:00:00 0.8 4 Sur 13 Sur 1 826.1 0.3 98
2019-12-05 01:00:00 0.9 5 Sur 13 Sudeste 1.4 826.2 0.8 98
2019-12-05 00:00:00 0.6 6 Sudoeste 13 Sur 1 826.1 0.8 99
2019-12-04 23:00:00 0.5 3 Sudoeste 11 Sur 2.2 825.8 1 98
2019-12-04 22:00:00 0.4 4 Sudoeste 16 Sudoeste 1.4 825.4 1.1 99
2019-12-04 21:00:00 0.4 4 Sudoeste 9 Sudoeste 2 825.3 1.2 99
2019-12-04 20:00:00 0.6 4 Sudoeste 13 Sudoeste 0.8 824.8 1 98
2019-12-04 19:00:00 0.6 5 Sudoeste 10 Sudoeste 1.4 824.3 0.7 98
2019-12-04 18:00:00 0.4 5 Sur 13 Sudeste 2.2 824.1 0.5 98
2019-12-04 17:00:00 1.1 8 Sur 21 Sudeste 3 823.8 0.4 98
2019-12-04 16:00:00 1.2 5 Este 14 Nordeste 1 823.6 0 97
2019-12-04 15:00:00 1.4 4 Sur 22 Sur 2 823.6 -0.3 94
2019-12-04 14:00:00 2.7 7 Nordeste 21 Oeste 0.6 823.4 -1.1 93
2019-12-04 13:00:00 3.7 6 Noroeste 30 Sur 0 823.6 -0.9 90
2019-12-04 12:00:00 4 8 Sur 34 Sudeste 0 823.9 -0.4 85
2019-12-04 11:00:00 3 7 Este 23 Nordeste 0 824.5 -0.3 89
2019-12-04 10:00:00 3.1 14 Sudeste 27 Sudeste 0 824.5 -0.4 87
2019-12-04 09:00:00 3.1 6 Sudeste 20 Sur 0 824.3 -0.6 86
2019-12-04 08:00:00 3.1 11 Sur 25 Sudeste 0 824.8 -0.2 82
2019-12-04 07:00:00 1.4 8 Norte 23 Sudeste 0 824.9 -1.1 87
2019-12-04 06:00:00 2.1 4 Oeste 33 Sudeste 0 824.9 -1.6 82
2019-12-04 05:00:00 1.8 13 Sudeste 26 Este 0 825 -2.1 80
2019-12-04 04:00:00 1.8 11 Sudeste 26 Sudeste 0 826 -1.5 78
2019-12-04 03:00:00 1.8 7 Norte 31 Sudeste 0 826.5 -1.5 81
2019-12-04 02:00:00 1.9 14 Sudeste 32 Sudeste 0 827.1 -1 79
2019-12-04 01:00:00 1.6 9 Sur 28 Sudeste 0 827.5 -0.5 84
2019-12-04 00:00:00 1.5 3 Nordeste 23 Sudeste 0 828 -0.1 83
2019-12-03 23:00:00 0.8 3 Sur 18 Sudoeste 0 828.1 0 82
2019-12-03 22:00:00 1.6 6 Sudeste 21 Sudeste 0 828 0.1 74
2019-12-03 21:00:00 1.6 8 Este 21 Sudeste 0 828.1 0.3 70
2019-12-03 20:00:00 -0.2 3 Sudeste 11 Este 0 828.1 0.4 78
2019-12-03 19:00:00 0.6 5 Nordeste 15 Nordeste 0 827.9 0.3 76
2019-12-03 18:00:00 0 5 Este 24 Sudeste 0 827.8 0.1 79
2019-12-03 17:00:00 1.7 19 Sudeste 30 Sudeste 0 827.7 -0.2 72
2019-12-03 16:00:00 2.6 14 Sudeste 26 Sudeste 0 827.6 -0.4 73
2019-12-03 15:00:00 3.9 12 Sudeste 20 Sudeste 0 827.7 -0.8 61
2019-12-03 14:00:00 4.6 8 Sudeste 17 Sudeste 0 827.9 -0.7 52
2019-12-03 13:00:00 3.7 5 Sudeste 14 Sudeste 0 828 -0.5 51
2019-12-03 12:00:00 2.7 5 Sudeste 16 Sudeste 0 828.5 0.3 50
2019-12-03 11:00:00 2.4 11 Sudeste 24 Sudeste 0 828.6 0.7 38
2019-12-03 10:00:00 -2.2 5 Este 10 Sudeste 0 828.5 0.8 61
2019-12-03 09:00:00 -2.6 7 Sur 10 Sur 0 828.2 0.8 73
2019-12-03 08:00:00 -2.2 6 Sur 14 Sur 0 827.9 0.3 70
2019-12-03 07:00:00 -1.9 11 Sur 16 Sudoeste 0 827.7 -0.3 61
2019-12-03 06:00:00 -2.9 7 Sur 12 Sudoeste 0 827.4 -1 75
2019-12-03 05:00:00 -2.5 7 Sudeste 12 Sur 0 827.6 -0.9 76
2019-12-03 04:00:00 -2.4 7 Sur 14 Sur 0 828 -0.6 74
2019-12-03 03:00:00 -1.4 8 Sur 19 Sudoeste 0 828.4 -0.3 67
2019-12-03 02:00:00 -1.9 8 Sur 13 Sudoeste 0 828.5 -0.4 70
2019-12-03 01:00:00 -1.8 8 Sudoeste 14 Sudoeste 0 828.6 -0.3 65
2019-12-03 00:00:00 -2.7 4 Sudoeste 11 Sur 0 828.7 0 74
2019-12-02 23:00:00 -1.8 7 Sur 14 Sudeste 0 828.9 0.1 72
2019-12-02 22:00:00 -2 7 Sudeste 12 Este 0 828.9 0.7 78
2019-12-02 21:00:00 -1.4 5 Este 12 Este 0 828.7 0.8 73
2019-12-02 20:00:00 -2 3 Sudeste 9 Sur 0 828.8 1 77
2019-12-02 19:00:00 -1.3 6 Sudeste 12 Sur 0 828.2 0.7 74
2019-12-02 18:00:00 -1 5 Sudeste 12 Sudoeste 0 827.9 0.4 77
2019-12-02 17:00:00 -0.3 6 Sur 11 Sur 0 827.8 0.2 75
2019-12-02 16:00:00 3 8 Sur 15 Sur 0 827.5 -0.4 63
2019-12-02 15:00:00 4.6 6 Sur 15 Sudoeste 0 827.5 -0.7 55
2019-12-02 14:00:00 4.2 5 Sudoeste 12 Sur 0 827.6 -0.7 60
2019-12-02 13:00:00 3.3 6 Sur 12 Sudoeste 0 827.9 0.1 62
2019-12-02 12:00:00 2.6 7 Sur 14 Sur 0 828.2 0.6 64
2019-12-02 11:00:00 1 8 Sur 14 Oeste 0 828.3 1.1 71
2019-12-02 10:00:00 -2.2 4 Sudoeste 11 Sudoeste 0 827.8 1.1 83
2019-12-02 09:00:00 -2.7 6 Sudoeste 15 Sudoeste 0 827.6 1.3 86
2019-12-02 08:00:00 -2.3 4 Sudeste 16 Noroeste 0 827.2 1 86
2019-12-02 07:00:00 -2.1 8 Sur 17 Sur 0 826.7 0.5 82
2019-12-02 06:00:00 -2.1 7 Sudoeste 14 Sudoeste 0 826.3 0.2 84
2019-12-02 05:00:00 -2.7 5 Sur 10 Sudoeste 0 826.2 0.1 90
2019-12-02 04:00:00 -1.6 7 Sur 15 Sur 0 826.2 0.2 83
2019-12-02 03:00:00 -1.3 7 Sudoeste 17 Sudoeste 0 826.1 0.4 82
2019-12-02 02:00:00 -0.8 6 Sudoeste 14 Sudoeste 0 826.1 0.5 80
2019-12-02 01:00:00 -0.4 6 Sudoeste 11 Sudoeste 0 826 0.6 84
2019-12-02 00:00:00 -0.2 4 Sudoeste 9 Sudoeste 0 825.7 0.7 88
2019-12-01 23:00:00 0.5 6 Sur 12 Sur 0 825.6 0.8 84
2019-12-01 22:00:00 0.6 2 Sudeste 6 Sudeste 0 825.4 1.3 92
2019-12-01 21:00:00 0.6 3 Sur 6 Sudoeste 0 825 1.4 96
2019-12-01 20:00:00 0.7 2 Sudoeste 7 Sudeste 0 824.8 1.4 96
2019-12-01 19:00:00 0.5 5 Sudeste 12 Sudeste 0 824.1 0.9 94
2019-12-01 18:00:00 1.2 9 Sudeste 15 Sudeste 0 823.6 0.5 92
2019-12-01 17:00:00 0.8 4 Sudeste 10 Sudeste 0 823.4 0.2 86
2019-12-01 16:00:00 3 5 Sudeste 14 Sudeste 0 823.2 -0.3 82
2019-12-01 15:00:00 4.7 11 Sudeste 15 Sudeste 0 823.1 -0.7 73
2019-12-01 14:00:00 4.6 4 Sudeste 9 Sur 0 823.2 -1 72
2019-12-01 13:00:00 4.4 4 Sur 18 Oeste 0.2 823.5 -0.4 74
2019-12-01 12:00:00 3.7 3 Noroeste 14 Este 0.2 823.8 0.3 89
2019-12-01 11:00:00 3.6 10 Sur 21 Sudeste 0.4 824.2 0.6 86
2019-12-01 10:00:00 3.6 4 Oeste 21 Sudoeste 0 823.9 0.6 85
2019-12-01 09:00:00 1.8 4 Sudeste 21 Sudeste 0 823.5 0.2 92
2019-12-01 08:00:00 1.4 5 Sur 14 Sur 0 823.6 -0.4 96
2019-12-01 07:00:00 1.6 3 Sur 9 Sudeste 0 823.3 -1 95
2019-12-01 06:00:00 2.2 8 Este 28 Oeste 0 823.3 -1.1 94
2019-12-01 05:00:00 2.7 11 Oeste 34 Oeste 0.4 824 -0.3 89
2019-12-01 04:00:00 2.4 6 Sur 21 Oeste 0.4 824.3 -0.4 96
2019-12-01 03:00:00 3.4 8 Nordeste 19 Nordeste 0.4 824.4 -1 98
2019-12-01 02:00:00 4.3 9 Norte 34 Sudeste 2.2 824.3 -1.6 96
2019-12-01 01:00:00 5.4 14 Este 32 Sudeste 3 824.7 -1.4 93
2019-12-01 00:00:00 5.5 11 Sur 31 Sudoeste 1.8 825.4 -1.1 91
2019-11-30 23:00:00 6.3 10 Sudoeste 33 Sudoeste 0 825.9 -0.8 86
2019-11-30 22:00:00 6.8 11 Sur 30 Sudeste 0 826.1 -1 77
2019-11-30 21:00:00 5.5 6 Sur 18 Sur 0 826.5 -0.8 85
2019-11-30 20:00:00 4.3 3 Sudeste 12 Sudeste 0 826.7 -0.9 88
2019-11-30 19:00:00 4.6 5 Nordeste 13 Sudeste 0 827.1 -0.8 88
2019-11-30 18:00:00 4 6 Sudeste 11 Sudeste 0 827.3 -1 88
2019-11-30 17:00:00 5.5 5 Este 14 Norte 0 827.6 -1.4 78
2019-11-30 16:00:00 6.9 6 Este 14 Sudeste 0 827.9 -1.9 75
2019-11-30 15:00:00 9.3 6 Este 17 Norte 0 828.3 -1.8 63
2019-11-30 14:00:00 9.6 9 Noroeste 29 Oeste 0 829 -1.8 62
2019-11-30 13:00:00 8.6 12 Oeste 33 Oeste 0 829.8 -0.7 57
2019-11-30 12:00:00 5.9 8 Nordeste 19 Sudeste 0 830.1 -0.5 61
2019-11-30 11:00:00 4.3 5 Norte 11 Norte 0 830.8 0.3 82
2019-11-30 10:00:00 1.9 4 Este 9 Este 0 830.5 -0.2 85
2019-11-30 09:00:00 0.8 2 Este 9 Sudeste 0 830.6 -0.5 97
2019-11-30 08:00:00 0.8 3 Norte 9 Norte 0 830.5 -0.6 96
2019-11-30 07:00:00 1.1 5 Sudeste 8 Sudeste 0 830.7 -0.7 95
2019-11-30 06:00:00 1.2 0 Calma 12 Sudeste 0 831.1 -0.4 94
2019-11-30 05:00:00 1.5 6 Sudeste 10 Sudeste 0 831.1 -0.6 95
2019-11-30 04:00:00 1.3 7 Sudeste 10 Sudeste 0 831.4 -0.4 95
2019-11-30 03:00:00 1.1 6 Sudeste 9 Sudeste 0 831.5 -0.4 95
2019-11-30 02:00:00 1.5 2 Sudeste 9 Sudeste 0 831.7 -0.1 93
2019-11-30 01:00:00 1.2 3 Sudeste 10 Sudeste 0 831.8 -0.3 96
2019-11-30 00:00:00 0.5 5 Sudeste 12 Sudeste 0 831.9 0.1 87
2019-11-29 23:00:00 1.1 6 Sudeste 12 Sudeste 0 831.8 0.2 93
2019-11-29 22:00:00 1.1 8 Sudeste 12 Sudeste 0 832.1 0.8 87
2019-11-29 21:00:00 1.2 8 Sudeste 10 Sudeste 0 831.8 0.9 79
2019-11-29 20:00:00 1.5 5 Sudeste 12 Sudeste 0 831.6 1.2 73
2019-11-29 19:00:00 1.9 7 Sudeste 13 Sur 0 831.3 1.4 71
2019-11-29 18:00:00 3.6 4 Sur 15 Sur 0 830.9 1.4 58
2019-11-29 17:00:00 4.8 8 Sur 16 Sur 0 830.4 0.8 65
2019-11-29 16:00:00 6.7 5 Sudeste 14 Noroeste 0 829.9 -0.1 55
2019-11-29 15:00:00 9.3 6 Oeste 18 Oeste 0 829.5 -0.7 45
2019-11-29 14:00:00 7.9 4 Sur 12 Sur 0 829.6 -0.6 61
2019-11-29 13:00:00 6.1 4 Sur 10 Sur 0 830 0.7 72
2019-11-29 12:00:00 5.6 6 Sur 10 Sur 0 830.2 1.2 74
2019-11-29 11:00:00 4.9 4 Sur 9 Sur 0 830.2 2.3 80
2019-11-29 10:00:00 1.5 3 Sur 8 Sudeste 0 829.3 2 99
2019-11-29 09:00:00 1.3 8 Sudeste 11 Sudeste 0 829 2.4 100
2019-11-29 08:00:00 1 4 Este 9 Sudeste 0 827.9 1.5 100
2019-11-29 07:00:00 1 5 Este 10 Nordeste 0 827.3 1.3 98
2019-11-29 06:00:00 1.7 3 Sudeste 13 Sudeste 0 826.6 1 96
2019-11-29 05:00:00 2.6 5 Sudeste 8 Sudeste 0 826.4 1.3 99
2019-11-29 04:00:00 2.6 4 Sudeste 13 Norte 0 826 0.8 100
2019-11-29 03:00:00 2.8 3 Nordeste 18 Norte 0 825.6 0 99
2019-11-29 02:00:00 3.1 12 Noroeste 30 Oeste 0 825.1 -0.5 94
2019-11-29 01:00:00 4.3 16 Oeste 38 Sudoeste 0 825.2 -0.5 83
2019-11-29 00:00:00 4.7 18 Oeste 35 Oeste 0 825.6 0 82
2019-11-28 23:00:00 4.7 11 Oeste 29 Sudoeste 0 825.6 0.1 84
2019-11-28 22:00:00 3.6 5 Oeste 16 Sudeste 0 825.7 0.3 93
2019-11-28 21:00:00 3.3 7 Sudeste 13 Sudeste 0 825.6 0 91
2019-11-28 20:00:00 3.4 4 Sur 21 Sur 0 825.5 0.2 86
2019-11-28 19:00:00 3.9 6 Noroeste 31 Oeste 0 825.4 0.2 83
2019-11-28 18:00:00 3.5 7 Oeste 21 Este 0 825.6 0.7 84
2019-11-28 17:00:00 3 4 Sudeste 9 Este 0 825.3 0.5 88
2019-11-28 16:00:00 5.1 3 Este 9 Sur 0 825.2 0.2 74
2019-11-28 15:00:00 5.9 4 Este 12 Norte 0 824.9 -0.3 73
2019-11-28 14:00:00 6.7 4 Noroeste 14 Noroeste 0 824.8 -0.7 71
2019-11-28 13:00:00 5.6 3 Oeste 10 Nordeste 0 825 0.3 77
2019-11-28 12:00:00 3.3 5 Norte 13 Norte 0 825.2 1.1 90
2019-11-28 11:00:00 2.1 6 Noroeste 21 Noroeste 0 825.5 2.1 95
2019-11-28 10:00:00 1.3 7 Noroeste 14 Noroeste 0 824.7 1.9 99
2019-11-28 09:00:00 0.6 4 Norte 13 Norte 0 824.1 1.8 100
2019-11-28 08:00:00 0.5 3 Noroeste 22 Noroeste 0 823.4 1.2 99
2019-11-28 07:00:00 0.8 13 Noroeste 28 Noroeste 0 822.8 0.8 98
2019-11-28 06:00:00 1 4 Este 18 Norte 0 822.3 0.3 99
2019-11-28 05:00:00 0.9 4 Norte 12 Norte 0 822.2 0.3 99
2019-11-28 04:00:00 1.1 3 Sudeste 19 Noroeste 0 822 0 99
2019-11-28 03:00:00 1.9 9 Noroeste 36 Oeste 0 822 -0.5 94
2019-11-28 02:00:00 2.4 18 Oeste 41 Sudoeste 0 821.9 -0.6 88
2019-11-28 01:00:00 2.5 21 Oeste 36 Oeste 0 822 -0.5 87
2019-11-28 00:00:00 2.7 10 Noroeste 33 Sudoeste 0 822.5 -0.3 83
2019-11-27 23:00:00 3.4 12 Oeste 25 Noroeste 0 822.5 -0.2 76
2019-11-27 22:00:00 4.1 15 Oeste 32 Oeste 0 822.5 0 68
2019-11-27 21:00:00 2.4 4 Sudeste 8 Sudeste 0 822.8 0.8 91
2019-11-27 20:00:00 3.2 3 Este 18 Sudeste 0 822.7 1.1 89
2019-11-27 19:00:00 3.3 4 Este 9 Sudeste 0 822.5 1.2 92
2019-11-27 18:00:00 3.9 3 Este 12 Sur 0 822 1 91
2019-11-27 17:00:00 4.8 4 Nordeste 8 Norte 0 821.6 0.6 85
2019-11-27 16:00:00 6.3 8 Noroeste 18 Sudoeste 0 821.3 0.2 80
2019-11-27 15:00:00 7.2 3 Norte 9 Noroeste 0 821 0 78
2019-11-27 14:00:00 7.1 4 Sur 10 Nordeste 0 821 -0.6 73
2019-11-27 06:00:00 5.2 13 Oeste 34 Sudoeste 0 818.4 -0.3 78
2019-11-27 05:00:00 5.2 3 Sudoeste 34 Oeste 0.8 818.2 -0.7 87
2019-11-27 04:00:00 4.9 12 Noroeste 28 Noroeste 0.4 818.6 -0.9 94
2019-11-27 03:00:00 5.5 17 Noroeste 30 Oeste 0 818.7 -1.7 95
2019-11-27 02:00:00 6.5 10 Sudoeste 30 Sudoeste 0 818.9 -2.2 88
2019-11-27 01:00:00 6 5 Oeste 26 Sudoeste 0 819.5 -2.5 94
2019-11-27 00:00:00 6.3 9 Este 27 Nordeste 0.2 820.4 -1.5 96
2019-11-26 23:00:00 7.9 10 Sudoeste 34 Sudoeste 0.2 821.1 -1 80
2019-11-26 22:00:00 9 16 Sudoeste 43 Noroeste 0 822 -0.4 75
2019-11-26 21:00:00 10.2 15 Oeste 41 Oeste 0 821.9 -0.7 66
2019-11-26 20:00:00 8.5 11 Oeste 27 Sudoeste 0 822.1 -1 72
2019-11-26 19:00:00 5.4 6 Este 14 Nordeste 0 822.4 -0.7 76
2019-11-26 18:00:00 5.9 5 Este 20 Sudeste 0 822.6 -1 71
2019-11-26 17:00:00 6.5 5 Sur 15 Nordeste 0 823.1 -0.4 67
2019-11-26 16:00:00 7.8 3 Nordeste 14 Este 0 823.1 -1 56
2019-11-26 15:00:00 8.8 5 Sur 10 Sur 0 823.6 -1.1 52
2019-11-26 14:00:00 10 7 Sudeste 16 Sudeste 0 823.5 -1.5 38
2019-11-26 13:00:00 8.8 4 Sudeste 11 Sur 0 824.1 -1 48
2019-11-26 12:00:00 7.8 5 Sur 12 Sudeste 0 824.7 -0.2 44
2019-11-26 11:00:00 6.5 4 Sudeste 9 Sudeste 0 825 0.4 48
2019-11-26 10:00:00 3.4 3 Sur 5 Sudeste 0 825.1 0.4 78
2019-11-26 09:00:00 1.8 4 Sudeste 8 Sudeste 0 824.9 0.3 80
2019-11-26 08:00:00 0.5 4 Sudeste 11 Sudeste 0 824.6 -0.2 84
2019-11-26 07:00:00 0.2 5 Sudeste 12 Sudeste 0 824.7 -0.2 89
2019-11-26 06:00:00 0.2 6 Sudeste 13 Sudeste 0 824.6 -0.7 90
2019-11-26 05:00:00 0.2 4 Este 12 Sudeste 0 824.8 -0.6 94
2019-11-26 04:00:00 1.2 8 Sudeste 12 Sudeste 0 824.9 -1.1 88
2019-11-26 03:00:00 1.1 6 Sudeste 11 Sudeste 0 825.3 -1 90
2019-11-26 02:00:00 0.9 5 Este 9 Sudeste 0 825.4 -0.9 90
2019-11-26 01:00:00 0.9 6 Sudeste 11 Sudeste 0 826 -0.2 86
2019-11-26 00:00:00 1 5 Sudeste 11 Sudoeste 0 826.3 0.2 84
2019-11-25 23:00:00 1.7 4 Sudeste 9 Sur 0 826.3 0.2 85
2019-11-25 22:00:00 2 5 Sudeste 13 Sudeste 0 826.2 0.4 83
2019-11-25 21:00:00 2.1 6 Sudeste 10 Sudeste 0 826.1 0.4 82
2019-11-25 20:00:00 2 6 Sudeste 10 Sudeste 0 826.1 0.7 85
2019-11-25 19:00:00 2.5 6 Sudeste 12 Sudeste 0 825.8 0.9 83
2019-11-25 18:00:00 2.9 6 Sudeste 13 Sur 0 825.7 1.2 81
2019-11-25 17:00:00 4.5 8 Sur 13 Sur 0 825.4 1.1 75
2019-11-25 16:00:00 7.9 6 Sur 15 Noroeste 0 824.9 0.5 61
2019-11-25 15:00:00 8.8 8 Oeste 15 Oeste 0 824.5 0 57
2019-11-25 14:00:00 8.6 6 Oeste 16 Noroeste 0 824.3 -0.4 55
2019-11-25 13:00:00 8.4 6 Noroeste 18 Oeste 0 824.4 0.5 56
2019-11-25 12:00:00 7.1 8 Oeste 16 Noroeste 0 824.5 1 61
2019-11-25 11:00:00 5.4 5 Sur 12 Sur 0 824.7 1.6 65
2019-11-25 10:00:00 2.3 6 Sur 13 Sur 0 823.9 1.2 78
2019-11-25 09:00:00 2.7 5 Sur 16 Sur 0 823.5 1.4 73
2019-11-25 08:00:00 2.2 6 Sur 13 Sudoeste 0 823.1 1 73
2019-11-25 07:00:00 1.9 5 Sudoeste 14 Sur 0 822.7 0.8 77
2019-11-25 06:00:00 2.4 8 Sur 16 Sur 0 822.1 -0.3 74
2019-11-25 05:00:00 0.8 5 Sur 10 Sur 0 822.1 -0.3 64
2019-11-25 04:00:00 -0.8 5 Sudeste 9 Sudeste 0 821.9 -0.5 69
2019-11-25 03:00:00 -1.3 4 Sudeste 9 Sudeste 0 822.4 -0.2 76
2019-11-25 02:00:00 -0.9 4 Sur 9 Sudeste 0 822.4 -0.2 77
2019-11-25 01:00:00 -0.5 4 Este 9 Este 0 822.4 -0.2 72
2019-11-25 00:00:00 -1.5 6 Este 9 Sudeste 0 822.6 -0.3 74
2019-11-24 23:00:00 -1.7 6 Sudeste 11 Este 0 822.6 -0.1 72
2019-11-24 22:00:00 -1.2 7 Sudeste 10 Sudeste 0 822.6 -0.2 68
2019-11-24 21:00:00 -0.9 6 Sudeste 11 Sudeste 0 822.9 0.5 69
2019-11-24 20:00:00 -1.4 6 Sudeste 11 Sudeste 0 822.7 0.5 71
2019-11-24 19:00:00 -0.7 6 Sur 11 Sur 0 822.8 0.9 70
2019-11-24 18:00:00 -0.5 7 Sudoeste 13 Sur 0 822.4 0.8 69
2019-11-24 17:00:00 1.3 7 Sur 16 Sudoeste 0 822.2 0.7 60
2019-11-24 16:00:00 4.8 6 Sudoeste 28 Noroeste 0 821.9 0.4 54
2019-11-24 15:00:00 5.2 6 Noroeste 27 Norte 0 821.6 0.3 48
2019-11-24 14:00:00 4.5 10 Noroeste 30 Noroeste 0 821.5 0.2 51
2019-11-24 13:00:00 4.3 12 Noroeste 28 Oeste 0 821.5 0.6 52
2019-11-24 12:00:00 3.8 12 Oeste 25 Oeste 0 821.3 0.9 55
2019-11-24 11:00:00 3.4 4 Sudoeste 21 Sudoeste 0 821.3 1.6 52
2019-11-24 10:00:00 1.2 6 Oeste 25 Noroeste 0 820.9 2 59
2019-11-24 09:00:00 -0.2 8 Sur 31 Sudoeste 0 820.4 2.2 61
2019-11-24 08:00:00 -0.2 7 Sudoeste 30 Sudoeste 0 819.7 2 67
2019-11-24 07:00:00 0.4 14 Oeste 27 Oeste 0 818.9 1.7 65
2019-11-24 06:00:00 -0.1 8 Sudoeste 21 Oeste 0 818.2 1.2 68
2019-11-24 05:00:00 0.5 11 Oeste 28 Sudoeste 0 817.7 1.1 66
2019-11-24 04:00:00 0.9 9 Oeste 24 Noroeste 0 817.2 0.8 65
2019-11-24 03:00:00 0.7 8 Oeste 32 Oeste 0 817 1.1 67
2019-11-24 02:00:00 0.7 12 Oeste 50 Noroeste 0 816.6 1.4 58
2019-11-24 01:00:00 0.6 13 Noroeste 53 Norte 0 816.4 1.8 57
2019-11-24 00:00:00 0.8 18 Noroeste 44 Norte 0 815.9 2.2 58
2019-11-23 23:00:00 0.3 10 Norte 46 Noroeste 0 815.2 2.7 61
2019-11-23 22:00:00 0.7 15 Norte 40 Norte 0 814.6 3.1 71
2019-11-23 21:00:00 0.9 16 Noroeste 37 Norte 0 813.7 3 75
2019-11-23 20:00:00 0.4 9 Oeste 19 Oeste 0 812.5 2.5 95
2019-11-23 19:00:00 0.9 12 Noroeste 35 Noroeste 0 811.5 2.2 100
2019-11-23 18:00:00 1 16 Noroeste 28 Noroeste 0 810.7 1.8 99
2019-11-23 17:00:00 1.2 6 Oeste 13 Noroeste 0.2 810 1.3 99
2019-11-23 16:00:00 1.9 6 Noroeste 10 Noroeste 0.2 809.3 1.1 93
2019-11-23 15:00:00 2.5 4 Noroeste 12 Noroeste 0 808.9 0.9 94
2019-11-23 14:00:00 2.5 8 Noroeste 16 Noroeste 0 808.7 1.1 94
2019-11-23 13:00:00 2.1 2 Este 13 Noroeste 0 808.2 1.3 96
2019-11-23 12:00:00 1.8 7 Noroeste 19 Norte 0 808 2 98
2019-11-23 11:00:00 1.3 12 Noroeste 26 Noroeste 0 807.6 2.3 100
2019-11-23 10:00:00 0.8 6 Nordeste 20 Noroeste 0 806.9 2.1 100
2019-11-23 09:00:00 0.6 0 Calma 12 Norte 0 806 1.5 99
2019-11-23 08:00:00 0.5 6 Este 28 Oeste 0 805.3 0.8 97
2019-11-23 07:00:00 1 10 Oeste 32 Oeste 0 804.8 -0.5 91
2019-11-23 06:00:00 1.2 7 Oeste 23 Noroeste 0 804.5 -1.2 89
2019-11-23 05:00:00 1.2 6 Nordeste 12 Nordeste 0 804.5 -1.2 96
2019-11-23 04:00:00 1.9 5 Nordeste 33 Sur 0 805.3 -1.2 96
2019-11-23 03:00:00 3.6 16 Sudoeste 33 Sur 4 805.7 -1.3 88
2019-11-23 02:00:00 3.9 9 Sudoeste 50 Sudoeste 4.6 805.7 -2.5 91
2019-11-23 01:00:00 3.6 5 Oeste 36 Sudeste 8.8 806.5 -3.3 94
2019-11-23 00:00:00 4.1 16 Sudeste 48 Sudeste 11.6 807 -3.3 92
2019-11-22 23:00:00 3.4 12 Este 40 Sudeste 8.6 808.2 -2.5 91
2019-11-22 22:00:00 2.4 9 Sudoeste 42 Sudoeste 5.2 809.8 -1.2 94
2019-11-22 21:00:00 2.8 10 Sudoeste 53 Sudoeste 8 810.3 -1.2 90
2019-11-22 20:00:00 2.8 10 Sudoeste 50 Sudeste 6.2 810.7 -1.1 92
2019-11-22 19:00:00 2.8 13 Este 37 Sudeste 5.2 811 -1 93
2019-11-22 18:00:00 2.4 7 Oeste 35 Sudeste 4 811.5 -0.9 95
2019-11-22 17:00:00 2 10 Sudoeste 50 Sudoeste 2.6 811.8 -1.6 94
2019-11-22 16:00:00 1.5 10 Sudoeste 50 Sudoeste 0.2 812 -2.8 95
2019-11-22 15:00:00 1.4 18 Sudoeste 60 Sudoeste 0 812.4 -3.9 97
2019-11-22 14:00:00 1.7 14 Oeste 48 Sudoeste 0.2 813.4 -3.8 96
2019-11-22 13:00:00 2.4 9 Oeste 31 Oeste 0.6 814.8 -2.6 94
2019-11-22 12:00:00 2.7 5 Norte 29 Sudoeste 0 816.3 -1.8 86
2019-11-22 11:00:00 1.8 7 Noroeste 28 Oeste 0 817.2 -0.7 88
2019-11-22 10:00:00 2.3 8 Oeste 22 Norte 0 817.4 -0.4 81
2019-11-22 09:00:00 1.8 6 Oeste 27 Sudoeste 0 818.1 -0.1 82
2019-11-22 08:00:00 1.5 10 Sudoeste 28 Sudoeste 0 817.9 -0.5 80
2019-11-22 07:00:00 0 8 Este 16 Nordeste 0 817.8 -1 82
2019-11-22 06:00:00 -0.9 6 Sudeste 14 Sudeste 0 818.2 -1.1 84
2019-11-22 05:00:00 -0.3 9 Este 23 Este 0 818.4 -1.2 80
2019-11-22 04:00:00 -2.1 7 Sudeste 15 Sudeste 0 818.8 -0.9 83
2019-11-22 03:00:00 -2 7 Este 18 Oeste 0 819.3 -0.8 84
2019-11-22 02:00:00 -2.8 5 Sudeste 9 Sudeste 0 819.6 -0.6 89
2019-11-22 01:00:00 -2.6 4 Sudeste 12 Sudoeste 0 819.7 -0.4 84
2019-11-22 00:00:00 -1.8 4 Sudeste 18 Sudeste 0 820.1 0.2 83
2019-11-21 23:00:00 -1.9 7 Este 12 Este 0 820.2 0.6 93
2019-11-21 22:00:00 -2.3 4 Este 12 Sudeste 0 820.1 0.7 89
2019-11-21 21:00:00 -2.5 5 Este 9 Este 0 819.9 0.8 88
2019-11-21 20:00:00 -1.1 2 Sudoeste 23 Oeste 0 819.6 1 77
2019-11-21 19:00:00 0.8 10 Sudoeste 23 Sur 0 819.4 1 66
2019-11-21 18:00:00 0.5 7 Sudoeste 19 Oeste 0 819.1 1 65
2019-11-21 17:00:00 0.6 5 Sudoeste 12 Sudoeste 0 818.6 0.4 69
2019-11-21 16:00:00 1.9 4 Sur 12 Sudeste 0 818.4 0 68
2019-11-21 15:00:00 2.4 4 Sudeste 9 Sudeste 0 818.1 -0.7 64
2019-11-21 14:00:00 3.3 4 Sudeste 12 Nordeste 0 818.2 -0.7 63
2019-11-21 13:00:00 2.3 6 Este 13 Norte 0 818.4 -0.2 70
2019-11-21 12:00:00 1 4 Sur 12 Sudeste 0 818.8 0 72
2019-11-21 11:00:00 0.3 5 Sudeste 9 Sudeste 0 818.9 0.4 75
2019-11-21 10:00:00 -2.7 4 Este 12 Sudeste 0 818.6 0.5 89
2019-11-21 09:00:00 -4.6 3 Sudeste 8 Sudeste 0 818.8 0.5 92
2019-11-21 08:00:00 -- -- -- -- -- -- -- -- --
2019-11-21 07:00:00 -- -- -- -- -- -- -- -- --
2019-11-21 06:00:00 -- -- -- -- -- -- -- -- --
2019-11-21 05:00:00 -- -- -- -- -- -- -- -- --
2019-11-21 04:00:00 -- -- -- -- -- -- -- -- --
2019-11-21 03:00:00 -- -- -- -- -- -- -- -- --
2019-11-21 02:00:00 -- -- -- -- -- -- -- -- --
2019-11-21 01:00:00 -- -- -- -- -- -- -- -- --
2019-11-21 00:00:00 -- -- -- -- -- -- -- -- --
2019-11-20 23:00:00 -- -- -- -- -- -- -- -- --
2019-11-20 22:00:00 -4.4 5 Sudeste 12 Sudeste 0 820 0.1 76
2019-11-20 21:00:00 -4.2 5 Sudeste 10 Sudeste 0 820.1 0.1 78
2019-11-20 20:00:00 -3.9 6 Sudeste 13 Sudeste 0 820.2 -0.1 74
2019-11-20 19:00:00 -3 9 Sudeste 13 Sudeste 0 819.9 -0.6 74
2019-11-20 18:00:00 -2.6 7 Sudeste 11 Sudeste 0 820 -0.5 79
2019-11-20 17:00:00 -1.8 6 Sudeste 11 Sudeste 0 820.3 -0.3 70
2019-11-20 16:00:00 1.2 2 Nordeste 14 Norte 0 820.5 -0.8 54
2019-11-20 15:00:00 3.3 3 Sur 14 Sur 0 820.5 -1.4 45
2019-11-20 14:00:00 2.8 4 Norte 8 Norte 0 820.6 -1.7 38
2019-11-20 13:00:00 0.5 3 Sudeste 7 Sudeste 0 821.3 -1.2 52
2019-11-20 12:00:00 0.9 5 Sudeste 10 Sur 0 821.9 -0.6 50
2019-11-20 11:00:00 -0.9 5 Sudeste 13 Este 0 822.3 -0.1 45
2019-11-20 10:00:00 -2.8 6 Sudeste 13 Sudeste 0 822.5 0.2 54
2019-11-20 09:00:00 -4.3 5 Sudeste 12 Sudeste 0 822.5 0.1 63
2019-11-20 08:00:00 -5 6 Sudeste 12 Sudeste 0 822.4 -0.2 66
2019-11-20 07:00:00 -5 5 Sudeste 13 Sudeste 0 822.3 -0.6 80
2019-11-20 06:00:00 -4.4 8 Sudeste 13 Sudeste 0 822.4 -1 84
2019-11-20 05:00:00 -4.4 9 Sudeste 13 Sudeste 0 822.6 -1.1 82
2019-11-20 04:00:00 -4.9 6 Sudeste 13 Sudeste 0 822.9 -1.2 87
2019-11-20 03:00:00 -5.2 4 Sudeste 11 Sudeste 0 823.4 -1 81
2019-11-20 02:00:00 -4.7 6 Sudeste 12 Sudeste 0 823.7 -0.8 83
2019-11-20 01:00:00 -4.5 5 Sudeste 11 Sudeste 0 824.1 -0.5 80
2019-11-20 00:00:00 -4.2 6 Sudeste 13 Sudeste 0 824.4 -0.1 84
2019-11-19 23:00:00 -3.9 9 Sudeste 12 Sudeste 0 824.5 0.2 83
2019-11-19 22:00:00 -3.5 7 Sudeste 13 Sudeste 0 824.6 0.3 80
2019-11-19 21:00:00 -2.8 11 Sudeste 17 Sudeste 0 824.5 0.3 78
2019-11-19 20:00:00 -3.1 9 Sudeste 13 Sudeste 0 824.3 0.2 76
2019-11-19 19:00:00 -3.1 8 Sudeste 12 Sudeste 0 824.3 0.1 80
2019-11-19 18:00:00 -2.7 8 Sudeste 13 Sudeste 0 824.2 0.2 73
2019-11-19 17:00:00 -2.5 6 Sudeste 11 Sudeste 0 824.1 -0.1 69
2019-11-19 16:00:00 0.3 5 Sur 9 Sudeste 0 824.2 -0.3 56
2019-11-19 15:00:00 0.9 5 Sudeste 11 Norte 0 824 -0.7 54
2019-11-19 14:00:00 2.5 3 Sudeste 9 Norte 0 824.2 -0.9 42
2019-11-19 13:00:00 0.7 5 Sur 13 Sur 0 824.5 -0.5 45
2019-11-19 12:00:00 -1 9 Sur 14 Sur 0 824.7 0 50
2019-11-19 11:00:00 -1 8 Sudoeste 13 Sudoeste 0 825.1 0.5 44
2019-11-19 10:00:00 -4 5 Sur 10 Sudoeste 0 825 0.8 52
2019-11-19 09:00:00 -5.4 6 Sur 13 Sur 0 824.7 0.8 60
2019-11-19 08:00:00 -5.9 6 Sur 13 Sur 0 824.6 0.8 59
2019-11-19 07:00:00 -5.8 4 Sudeste 10 Sudeste 0 824.2 0.3 72
2019-11-19 06:00:00 -5.6 5 Sudeste 14 Sudeste 0 823.9 -0.1 73
2019-11-19 05:00:00 -5.9 7 Sudeste 12 Sudeste 0 823.8 -0.2 72
2019-11-19 04:00:00 -5.2 7 Sudeste 19 Sudoeste 0 823.9 -0.4 58
2019-11-19 03:00:00 -5.1 4 Sudoeste 19 Sudoeste 0 824 -0.5 65
2019-11-19 02:00:00 -5.4 8 Sur 13 Sudoeste 0 824 -0.8 65
2019-11-19 01:00:00 -6.4 4 Este 9 Sudoeste 0 824.3 -0.2 88
2019-11-19 00:00:00 -7 3 Sudeste 8 Sudeste 0 824.5 0.5 87
2019-11-18 23:00:00 -7.4 6 Sur 10 Sur 0 824.8 1.2 83
2019-11-18 22:00:00 -6.5 5 Sur 13 Sudeste 0 824.5 1.3 77
2019-11-18 21:00:00 -5.3 8 Sudeste 15 Sudeste 0 824 1.3 81
2019-11-18 20:00:00 -6.2 6 Sur 11 Sur 0 823.6 1.6 78
2019-11-18 19:00:00 -5.2 8 Sur 12 Sur 0 823.2 1.4 90
2019-11-18 18:00:00 -4.3 4 Sur 14 Sudoeste 0 822.7 1.1 81
2019-11-18 17:00:00 -2.3 6 Sudoeste 18 Noroeste 0 822 0.6 76
2019-11-18 16:00:00 1.3 5 Oeste 18 Noroeste 0 821.8 0.4 64
2019-11-18 15:00:00 1.8 8 Oeste 17 Noroeste 0 821.6 0.5 64
2019-11-18 14:00:00 1.9 6 Noroeste 18 Noroeste 0 821.4 0.4 64
2019-11-18 13:00:00 0.8 11 Noroeste 19 Noroeste 0 821.4 1.1 70
2019-11-18 12:00:00 0.9 6 Noroeste 25 Noroeste 0 821.1 1.2 72
2019-11-18 11:00:00 0.7 7 Noroeste 17 Noroeste 0 821 1.4 75
2019-11-18 10:00:00 -0.2 2 Sur 10 Sudoeste 0 820.3 1.2 83
2019-11-18 09:00:00 -3.4 5 Sudoeste 12 Sudoeste 0 819.9 1.1 90
2019-11-18 08:00:00 -3.2 9 Sudoeste 16 Sudoeste 0 819.6 1 92
2019-11-18 07:00:00 -3.8 4 Sur 16 Sur 0 819.1 0.6 89
2019-11-18 06:00:00 -2.9 5 Sudoeste 13 Sudoeste 0 818.8 0.2 91
2019-11-18 05:00:00 -3.9 8 Sur 12 Sur 0 818.6 0 98
2019-11-18 04:00:00 -4.1 5 Sudeste 9 Sudeste 0 818.5 -0.2 93
2019-11-18 03:00:00 -4.1 3 Sudeste 8 Sudeste 0 818.6 0 89
2019-11-18 02:00:00 -3.9 4 Este 9 Sudeste 0 818.6 -0.3 98
2019-11-18 01:00:00 -3.8 3 Sudeste 8 Sudeste 0 818.7 -0.4 95
2019-11-18 00:00:00 -4.6 5 Sudeste 9 Sudeste 0 818.6 -0.5 92
2019-11-17 23:00:00 -4.2 6 Sur 9 Sudeste 0 818.9 0 89
2019-11-17 22:00:00 -3.7 4 Este 10 Sudeste 0 819.1 0.3 91
2019-11-17 21:00:00 -3.5 4 Este 9 Sudeste 0 819.1 0.2 92
2019-11-17 20:00:00 -3.2 5 Sudeste 11 Sudeste 0 818.9 0.3 82
2019-11-17 19:00:00 -2.4 8 Sudeste 11 Sudeste 0 818.8 0.2 83
2019-11-17 18:00:00 -2.1 8 Sudeste 11 Sudeste 0 818.9 0.4 80
2019-11-17 17:00:00 -0.7 8 Sudeste 11 Sudeste 0 818.6 0.1 75
2019-11-17 16:00:00 -0.4 4 Sudeste 10 Sur 0 818.6 -0.2 75
2019-11-17 15:00:00 1.6 6 Este 15 Sudoeste 0 818.5 -0.6 65
2019-11-17 14:00:00 1.2 5 Sur 21 Sur 0 818.5 -0.5 62
2019-11-17 13:00:00 1.3 3 Sudeste 8 Sudeste 0 818.8 -0.3 71
2019-11-17 12:00:00 1.1 4 Nordeste 10 Norte 0 819.1 0.1 72
2019-11-17 11:00:00 -0.3 4 Este 8 Norte 0 819 0.3 78
2019-11-17 10:00:00 -2.3 3 Este 8 Este 0 819.1 0.2 86
2019-11-17 09:00:00 -3.4 6 Nordeste 13 Este 0 819 0.5 90
2019-11-17 08:00:00 -4.1 6 Sudeste 15 Este 0 818.7 0 92
2019-11-17 07:00:00 -4.2 5 Este 9 Sudeste 0 818.9 -0.2 93
2019-11-17 06:00:00 -4.6 4 Este 15 Sur 0 818.5 -0.8 92
2019-11-17 05:00:00 -5.4 5 Sur 10 Sudoeste 0 818.7 -0.7 91
2019-11-17 04:00:00 -4.6 5 Sur 12 Sudoeste 0 819.1 -0.8 87
2019-11-17 03:00:00 -5.3 4 Sur 11 Sur 0 819.3 -1 85
2019-11-17 02:00:00 -4.7 3 Sudeste 9 Sur 0 819.4 -1 84
2019-11-17 01:00:00 -4.6 4 Este 9 Sudeste 0 819.9 -0.4 94
2019-11-17 00:00:00 -4.5 2 Este 10 Oeste 0 820.3 -0.1 90
2019-11-16 23:00:00 -4.9 3 Oeste 12 Sur 0 820.4 0.3 93
2019-11-16 22:00:00 -4.5 7 Sur 12 Sur 0 820.3 0.2 86
2019-11-16 21:00:00 -5.1 8 Sur 12 Sur 0 820.4 0.6 86
2019-11-16 20:00:00 -5.3 5 Sur 13 Sur 0 820.1 0.1 86
2019-11-16 19:00:00 -5.1 4 Sur 10 Norte 0 820.1 0 89
2019-11-16 18:00:00 -5.1 4 Sur 10 Sur 0 819.8 -0.3 89
2019-11-16 17:00:00 -3.2 5 Sudeste 15 Sudeste 0 820 -0.2 82
2019-11-16 16:00:00 -1.4 4 Sudeste 11 Sudeste 0 820.1 -0.4 74
2019-11-16 15:00:00 -0.1 4 Este 13 Norte 0 820.1 -0.7 63
2019-11-16 14:00:00 -0.5 3 Sudeste 9 Sur 0 820.2 -0.9 67
2019-11-16 13:00:00 -1.4 5 Sudeste 10 Sudeste 0 820.5 -0.2 69
2019-11-16 12:00:00 -2.3 6 Sur 9 Sudeste 0 820.8 0.8 71
2019-11-16 11:00:00 -3.6 6 Sudeste 8 Sudeste 0 821.1 1.4 80
2019-11-16 10:00:00 -6.4 4 Sudeste 7 Sudeste 0 820.7 1.8 81
2019-11-16 09:00:00 -7.5 5 Sudeste 10 Sudeste 0 820 1.8 87
2019-11-16 08:00:00 -8 3 Sudeste 11 Sur 0 819.7 2.1 88
2019-11-16 07:00:00 -8.2 5 Sudeste 12 Norte 0 818.9 1.5 88
2019-11-16 06:00:00 -7.3 8 Sudeste 15 Sudeste 0 818.2 1.2 90
2019-11-16 05:00:00 -7.3 7 Sudeste 13 Sudeste 0 817.6 0.9 90
2019-11-16 04:00:00 -7.5 6 Sudeste 13 Este 0 817.4 1 84
2019-11-16 03:00:00 -7.2 4 Sudeste 8 Sur 0 817 1 93
2019-11-16 02:00:00 -7.6 3 Sudeste 9 Sur 0 816.7 1.4 92
2019-11-16 01:00:00 -7 4 Sudeste 13 Sudoeste 0 816.4 1.7 89
2019-11-16 00:00:00 -6.4 8 Sur 14 Sur 0.2 816 2.1 92
2019-11-15 23:00:00 -5.6 9 Sur 13 Sudoeste 0 815.3 2 91
2019-11-15 22:00:00 -5.5 5 Sudoeste 11 Sudoeste 0.2 814.7 1.9 96
2019-11-15 21:00:00 -5.2 3 Sur 8 Sur 0 813.9 1.8 97
2019-11-15 20:00:00 -4.7 3 Sur 8 Sur 0 813.3 1.7 97
2019-11-15 19:00:00 -4.9 2 Noroeste 11 Sur 0 812.8 1.7 97
2019-11-15 18:00:00 -5.2 4 Sur 9 Sur 0 812.1 1.1 89
2019-11-15 17:00:00 -3.4 4 Norte 15 Norte 0 811.6 0.6 92
2019-11-15 16:00:00 -1.3 5 Norte 16 Noroeste 0 811.1 -0.1 78
2019-11-15 15:00:00 -1.1 8 Noroeste 15 Noroeste 0 811 -0.5 82
2019-11-15 14:00:00 -1.3 3 Sudoeste 12 Noroeste 0 811 -0.7 79
2019-11-15 13:00:00 0.2 2 Sur 21 Sudoeste 0.2 811.2 -0.2 71
2019-11-15 12:00:00 -0.6 8 Sur 22 Sudeste 0 811.5 0 70
2019-11-15 11:00:00 -1.8 12 Sudeste 22 Sudeste 0 811.7 0.6 69
2019-11-15 10:00:00 -4.4 6 Sudeste 16 Sudeste 0 811.4 0.6 84
2019-11-15 09:00:00 -7.3 2 Sudeste 12 Sudeste 0 811.5 0.4 91
2019-11-15 08:00:00 -7.2 2 Sudeste 11 Sur 0 811.1 0.2 94
2019-11-15 07:00:00 -7 2 Sur 7 Sudoeste 0.2 810.8 0 93
2019-11-15 06:00:00 -6.4 3 Sudeste 8 Sudeste 0 811.1 0.6 95
2019-11-15 05:00:00 -6.5 2 Sudeste 9 Sur 0.2 810.9 0.3 97
2019-11-15 04:00:00 -6.6 4 Nordeste 8 Nordeste 0 810.8 0 97
2019-11-15 03:00:00 -6.7 5 Sur 10 Sudoeste 0 810.5 -0.1 93
2019-11-15 02:00:00 -6.4 4 Sudeste 6 Sudeste 0.2 810.6 0.6 93
2019-11-15 01:00:00 -5.1 4 Este 10 Sudeste 0 810.8 1 96
2019-11-15 00:00:00 -5.9 5 Sur 10 Sudoeste 0.2 810.6 1 87
2019-11-14 23:00:00 -3.9 3 Este 9 Sudoeste 0 810 0.2 94
2019-11-14 22:00:00 -3.9 4 Este 8 Nordeste 0 809.8 0.5 97
2019-11-14 21:00:00 -3.9 2 Sudeste 11 Sudoeste 0.2 809.6 0.6 95
2019-11-14 20:00:00 -3.3 4 Sudoeste 12 Sudoeste 0 809.8 1.4 95
2019-11-14 19:00:00 -3.1 8 Oeste 18 Noroeste 0.6 809.3 1.2 94
2019-11-14 18:00:00 -2.4 5 Noroeste 25 Noroeste 0 809 0.7 96
2019-11-14 17:00:00 -1.6 10 Oeste 20 Sudoeste 2.6 808.4 -0.6 94
2019-11-14 16:00:00 -1.4 8 Norte 13 Norte 1.2 808.1 -1.3 97
2019-11-14 15:00:00 -0.5 4 Noroeste 19 Nordeste 0 808.3 -2.4 97
2019-11-14 14:00:00 -0.7 5 Nordeste 14 Noroeste 0.2 809 -2 97
2019-11-14 13:00:00 0.3 6 Noroeste 26 Sur 1.6 809.4 -2.2 93
2019-11-14 12:00:00 -0.6 10 Noroeste 17 Noroeste 1.6 810.7 -1.5 96
2019-11-14 11:00:00 0.7 5 Sudoeste 21 Sudoeste 2.2 811 -1.5 94
2019-11-14 10:00:00 0.6 3 Sudeste 16 Sur 1.8 811.6 -1.3 95
2019-11-14 09:00:00 0.1 4 Norte 13 Nordeste 1.2 812.2 -1.9 99
2019-11-14 08:00:00 0.3 5 Norte 36 Sudoeste 0.8 812.5 -2.4 96
2019-11-14 07:00:00 1.5 15 Sur 41 Sur 0 812.9 -2.5 85
2019-11-14 06:00:00 1.3 19 Sur 49 Sudoeste 0.2 814.1 -2.1 89
2019-11-14 05:00:00 1.5 26 Sur 51 Sur 0 814.9 -2.7 87
2019-11-14 04:00:00 0.9 8 Norte 26 Sur 0 815.4 -2.5 86
2019-11-14 03:00:00 3.2 11 Oeste 46 Oeste 0 816.2 -2.1 68
2019-11-14 02:00:00 1.4 9 Oeste 32 Sudoeste 0 817.6 -1.7 71
2019-11-14 01:00:00 -1 4 Sudeste 14 Sudoeste 0 817.9 -2.1 76
2019-11-14 00:00:00 -0.6 8 Sudeste 13 Sudeste 0 818.3 -2.2 74
2019-11-13 23:00:00 -1.2 6 Sudeste 17 Sudeste 0 819.3 -1.5 66
2019-11-13 22:00:00 -1.2 8 Sudeste 14 Sudeste 0 820 -0.1 68
2019-11-13 21:00:00 -1.1 4 Sudeste 14 Sudoeste 0 820.5 0.3 61
2019-11-13 20:00:00 -1.3 7 Este 12 Sudeste 0 820.8 1.4 67
2019-11-13 19:00:00 0 6 Este 13 Sudeste 0 820.1 1 61
2019-11-13 18:00:00 0.2 4 Sudoeste 12 Noroeste 0 820.2 1 55
2019-11-13 17:00:00 2.3 6 Sudoeste 20 Sudoeste 0 819.4 0.5 56
2019-11-13 16:00:00 5.9 6 Sudoeste 15 Noroeste 0 819.1 0.2 45
2019-11-13 15:00:00 5.7 9 Noroeste 19 Noroeste 0 819.2 -0.1 48
2019-11-13 14:00:00 5.1 9 Noroeste 19 Noroeste 0 818.9 0.1 53
2019-11-13 13:00:00 4.3 10 Noroeste 21 Noroeste 0 818.9 0.6 57
2019-11-13 12:00:00 3.6 8 Oeste 18 Noroeste 0 819.3 1.4 62
2019-11-13 11:00:00 3 5 Oeste 19 Sudoeste 0 818.8 1.4 61
2019-11-13 10:00:00 0.6 6 Sudoeste 13 Sudoeste 0 818.3 1.3 72
2019-11-13 09:00:00 -0.2 3 Sur 15 Sudoeste 0 817.9 1.2 81
2019-11-13 08:00:00 -1.8 5 Sur 10 Sudoeste 0 817.4 0.4 85
2019-11-13 07:00:00 -1.8 5 Sudeste 9 Sudeste 0 817 0.2 85
2019-11-13 06:00:00 -1.6 4 Sudeste 9 Sudoeste 0 816.7 -0.7 91
2019-11-13 05:00:00 -1.5 7 Sur 15 Sudoeste 0 817 -0.4 84
2019-11-13 04:00:00 -1.6 5 Sur 10 Sudeste 0 816.8 -1.2 89
2019-11-13 03:00:00 -1.7 6 Sudeste 12 Sudeste 0 817.4 -1.2 85
2019-11-13 02:00:00 -1.5 4 Sur 13 Sudoeste 0 817.4 -1.4 87
2019-11-13 01:00:00 -1.4 5 Este 14 Sudoeste 0 818 -1.2 87
2019-11-13 00:00:00 -1.7 6 Sudeste 9 Sudeste 0 818.6 -0.7 86
2019-11-12 23:00:00 -1.4 8 Este 10 Sudeste 0 818.8 -0.5 90
2019-11-12 22:00:00 -1 7 Sudeste 12 Sudeste 0 819.2 -0.4 77
2019-11-12 21:00:00 -0.3 8 Sudeste 12 Sudeste 0 819.3 -0.2 77
2019-11-12 20:00:00 -0.5 5 Sudeste 12 Sudoeste 0 819.3 -0.3 79
2019-11-12 19:00:00 0 5 Sur 14 Sudoeste 0 819.6 -0.6 74
2019-11-12 18:00:00 1.1 7 Sudoeste 25 Norte 0 819.5 -0.3 67
2019-11-12 17:00:00 2.2 10 Nordeste 32 Norte 0 819.6 -1.1 60
2019-11-12 16:00:00 4.8 12 Noroeste 40 Noroeste 0 820.2 -1.3 49
2019-11-12 15:00:00 5.2 15 Noroeste 35 Noroeste 0 819.8 -2.3 47
2019-11-12 14:00:00 4.6 15 Noroeste 41 Noroeste 0 820.7 -1.9 47
2019-11-12 13:00:00 3.9 13 Noroeste 39 Noroeste 0 821.5 -0.6 51
2019-11-12 12:00:00 3 18 Noroeste 35 Norte 0 822.1 0.2 48
2019-11-12 11:00:00 2.1 14 Noroeste 39 Oeste 0 822.6 0.1 55
2019-11-12 10:00:00 0.9 13 Noroeste 39 Oeste 0 822.1 0.3 54
2019-11-12 09:00:00 -0.5 17 Noroeste 32 Noroeste 0 821.9 -0.3 63
2019-11-12 08:00:00 -1 8 Noroeste 37 Oeste 0 822.5 0.4 60
2019-11-12 07:00:00 -1.5 8 Noroeste 30 Noroeste 0 821.8 -0.4 71
2019-11-12 06:00:00 -1.8 8 Oeste 22 Noroeste 0 822.2 0.1 67
2019-11-12 05:00:00 -2 6 Noroeste 23 Oeste 0 822.1 -0.6 73
2019-11-12 04:00:00 -2 6 Oeste 28 Oeste 0 822.2 -0.7 79
2019-11-12 03:00:00 -1.3 11 Oeste 33 Noroeste 0 822.1 -0.9 70
2019-11-12 02:00:00 -1.4 7 Noroeste 30 Norte 0 822.7 -0.5 78
2019-11-12 01:00:00 -0.9 9 Noroeste 30 Noroeste 0 822.9 -0.7 76
2019-11-12 00:00:00 -0.6 6 Oeste 29 Oeste 0 823 -0.2 73